createdAt,value
2022-11-03T00:01:53.132Z,2.70
2022-11-03T00:07:00.378Z,2.70
2022-11-03T00:12:08.277Z,3.43
2022-11-03T00:17:17.788Z,3.17
2022-11-03T00:22:22.025Z,2.80
2022-11-03T00:27:23.742Z,2.80
2022-11-03T00:32:25.418Z,3.00
2022-11-03T00:37:29.637Z,2.43
2022-11-03T00:42:35.138Z,2.57
2022-11-03T00:47:59.352Z,2.57
2022-11-03T00:53:01.035Z,2.53
2022-11-03T00:58:08.434Z,2.13
2022-11-03T01:03:14.760Z,2.47
2022-11-03T01:08:16.481Z,3.30
2022-11-03T01:13:19.029Z,2.90
2022-11-03T01:18:20.729Z,2.80
2022-11-03T01:23:31.258Z,2.83
2022-11-03T01:28:43.559Z,3.23
2022-11-03T01:33:49.849Z,2.80
2022-11-03T01:38:51.560Z,3.07
2022-11-03T01:44:08.266Z,3.40
2022-11-03T01:49:17.775Z,2.57
2022-11-03T01:54:24.221Z,2.97
2022-11-03T01:59:29.514Z,3.03
2022-11-03T02:04:34.947Z,2.73
2022-11-03T02:09:42.281Z,3.30
2022-11-03T02:15:05.803Z,3.13
2022-11-03T02:20:16.179Z,2.87
2022-11-03T02:25:28.448Z,2.83
2022-11-03T02:30:43.154Z,3.03
2022-11-03T02:35:59.884Z,2.87
2022-11-03T02:41:10.413Z,3.13
2022-11-03T02:46:13.833Z,3.50
2022-11-03T02:51:18.125Z,3.37
2022-11-03T02:56:25.040Z,2.83
2022-11-03T03:01:47.606Z,3.33
2022-11-03T03:06:57.744Z,3.20
2022-11-03T03:12:00.623Z,2.63
2022-11-03T03:17:11.354Z,3.07
2022-11-03T03:22:28.544Z,3.20
2022-11-03T03:27:32.928Z,3.67
2022-11-03T03:32:45.958Z,2.93
2022-11-03T03:37:53.629Z,2.90
2022-11-03T03:42:55.711Z,2.83
2022-11-03T03:47:58.202Z,3.15
2022-11-03T03:53:05.075Z,4.00
2022-11-03T03:58:07.998Z,3.03
2022-11-03T04:03:21.019Z,2.87
2022-11-03T04:08:22.673Z,3.43
2022-11-03T04:13:43.008Z,2.80
2022-11-03T04:19:16.734Z,2.40
2022-11-03T04:24:18.441Z,3.00
2022-11-03T04:29:20.156Z,2.40
2022-11-03T04:34:23.819Z,2.87
2022-11-03T04:39:31.494Z,3.07
2022-11-03T04:44:37.040Z,2.47
2022-11-03T04:49:43.362Z,2.77
2022-11-03T04:54:45.227Z,3.03
2022-11-03T04:59:51.612Z,3.30
2022-11-03T05:04:53.336Z,2.50
2022-11-03T05:09:57.338Z,2.60
2022-11-03T05:15:08.276Z,3.07
2022-11-03T05:20:28.191Z,3.30
2022-11-03T05:25:35.487Z,2.60
2022-11-03T05:30:37.271Z,2.60
2022-11-03T05:35:42.436Z,3.57
2022-11-03T05:40:44.276Z,3.13
2022-11-03T05:45:55.807Z,2.90
2022-11-03T05:51:00.425Z,3.00
2022-11-03T05:56:06.173Z,2.83
2022-11-03T06:01:30.815Z,3.10
2022-11-03T06:06:35.465Z,3.10
2022-11-03T06:11:37.549Z,3.87
2022-11-03T06:16:43.967Z,2.73
2022-11-03T06:21:49.492Z,3.23
2022-11-03T06:26:52.293Z,2.90
2022-11-03T06:31:56.189Z,3.20
2022-11-03T06:36:59.561Z,3.53
2022-11-03T06:42:13.128Z,2.83
2022-11-03T06:47:23.115Z,2.83
2022-11-03T06:52:33.803Z,2.57
2022-11-03T06:57:38.099Z,2.77
2022-11-03T07:02:48.076Z,2.87
2022-11-03T07:08:00.398Z,2.87
2022-11-03T07:13:13.084Z,2.80
2022-11-03T07:18:23.674Z,2.53
2022-11-03T07:23:31.855Z,3.03
2022-11-03T07:28:39.695Z,2.90
2022-11-03T07:33:43.950Z,3.20
2022-11-03T07:38:55.602Z,2.63
2022-11-03T07:44:02.233Z,3.17
2022-11-03T07:49:08.957Z,3.53
2022-11-03T07:54:21.352Z,3.00
2022-11-03T07:59:41.179Z,3.30
2022-11-03T08:04:51.727Z,2.55
2022-11-03T08:09:55.820Z,2.80
2022-11-03T08:14:57.558Z,3.43
2022-11-03T08:19:59.263Z,2.80
2022-11-03T08:25:01.016Z,3.30
2022-11-03T08:30:05.411Z,2.92
2022-11-03T08:35:09.895Z,3.35
2022-11-03T08:40:13.333Z,3.10
2022-11-03T08:45:17.800Z,2.65
2022-11-03T08:50:19.572Z,2.92
2022-11-03T08:55:22.467Z,3.45
2022-11-03T09:00:24.905Z,3.50
2022-11-03T09:05:31.218Z,3.42
2022-11-03T09:10:36.906Z,3.60
2022-11-03T09:15:44.918Z,2.92
2022-11-03T09:20:51.201Z,2.60
2022-11-03T09:25:55.250Z,3.38
2022-11-03T09:30:58.713Z,3.22
2022-11-03T09:36:02.874Z,2.83
2022-11-03T09:41:13.513Z,2.60
2022-11-03T09:46:36.046Z,3.05
2022-11-03T09:51:39.923Z,3.67
2022-11-03T09:56:44.235Z,3.28
2022-11-03T10:01:50.180Z,3.60
2022-11-03T10:06:52.439Z,3.25
2022-11-03T10:11:56.586Z,2.80
2022-11-03T10:17:02.368Z,3.60
2022-11-03T10:22:04.628Z,3.33
2022-11-03T10:27:29.016Z,2.58
2022-11-03T10:32:34.205Z,3.67
2022-11-03T10:37:39.932Z,2.92
2022-11-03T10:43:01.388Z,3.28
2022-11-03T10:48:09.182Z,2.90
2022-11-03T10:53:18.347Z,3.10
2022-11-03T10:58:22.463Z,3.13
2022-11-03T11:03:24.578Z,3.10
2022-11-03T11:08:26.479Z,3.00
2022-11-03T11:13:29.443Z,4.70
2022-11-03T11:18:31.243Z,4.20
2022-11-03T11:23:36.311Z,2.88
2022-11-03T11:28:41.927Z,2.90
2022-11-03T11:33:43.673Z,3.95
2022-11-03T11:38:48.348Z,3.17
2022-11-03T11:44:41.747Z,2.80
2022-11-03T11:49:45.557Z,2.97
2022-11-03T11:54:52.162Z,2.47
2022-11-03T11:59:56.245Z,2.65
2022-11-03T12:05:01.299Z,2.50
2022-11-03T12:10:12.325Z,3.30
2022-11-03T12:15:51.546Z,2.35
2022-11-03T12:20:57.747Z,2.30
2022-11-03T12:25:59.540Z,2.60
2022-11-03T12:31:06.837Z,2.85
2022-11-03T12:36:09.110Z,2.65
2022-11-03T12:41:22.678Z,2.38
2022-11-03T12:46:24.487Z,3.00
2022-11-03T12:51:30.639Z,2.30
2022-11-03T12:56:35.777Z,2.80
2022-11-03T13:01:39.939Z,3.33
2022-11-03T13:06:41.992Z,2.72
2022-11-03T13:12:03.208Z,2.70
2022-11-03T13:17:07.342Z,2.72
2022-11-03T13:22:09.165Z,2.58
2022-11-03T13:27:15.493Z,2.47
2022-11-03T13:32:17.513Z,3.15
2022-11-03T13:37:21.605Z,2.65
2022-11-03T13:42:26.382Z,3.00
2022-11-03T13:47:49.659Z,2.53
2022-11-03T13:52:50.296Z,2.65
2022-11-03T14:08:44.581Z,2.33
2022-11-03T14:13:46.470Z,2.63
2022-11-03T14:18:49.244Z,2.47
2022-11-03T14:23:54.913Z,2.30
2022-11-03T14:29:04.465Z,2.97
2022-11-03T14:34:08.643Z,2.30
2022-11-03T14:39:12.914Z,2.95
2022-11-03T14:44:17.824Z,2.72
2022-11-03T14:49:19.624Z,3.83
2022-11-03T14:54:28.107Z,3.10
2022-11-03T14:59:34.430Z,2.20
2022-11-03T15:04:36.925Z,2.63
2022-11-03T15:09:39.581Z,2.83
2022-11-03T15:14:47.147Z,2.70
2022-11-03T15:19:48.876Z,2.50
2022-11-03T15:30:15.261Z,2.97
2022-11-03T15:35:17.907Z,3.15
2022-11-03T15:40:21.127Z,3.28
2022-11-03T15:45:25.244Z,2.70
2022-11-03T15:50:29.755Z,2.90
2022-11-03T15:55:34.043Z,2.40
2022-11-03T16:00:37.649Z,3.15
2022-11-03T16:05:44.418Z,2.75
2022-11-03T16:10:56.465Z,3.03
2022-11-03T16:15:59.815Z,2.90
2022-11-03T16:21:03.996Z,2.63
2022-11-03T16:26:16.257Z,2.97
2022-11-03T16:36:56.909Z,2.40
2022-11-03T16:42:08.184Z,2.90
2022-11-03T16:47:13.563Z,3.65
2022-11-03T16:52:35.997Z,4.40
2022-11-03T16:58:32.048Z,4.10
2022-11-03T17:03:53.974Z,3.80
2022-11-03T17:09:52.472Z,3.75
2022-11-03T17:16:24.753Z,3.10
2022-11-03T17:21:46.381Z,3.28
2022-11-03T17:27:07.724Z,3.63
2022-11-03T17:32:38.587Z,3.45
2022-11-03T17:43:33.120Z,3.28
2022-11-03T17:48:40.491Z,3.17
2022-11-03T17:53:43.027Z,3.30
2022-11-03T17:58:47.466Z,3.33
2022-11-03T18:03:49.346Z,3.42
2022-11-03T18:08:52.150Z,3.80
2022-11-03T18:13:57.989Z,3.30
2022-11-03T18:18:59.744Z,3.10
2022-11-03T18:24:01.500Z,3.42
2022-11-03T18:29:03.774Z,3.63
2022-11-03T18:34:10.273Z,3.08
2022-11-03T18:39:17.296Z,2.70
2022-11-03T18:44:22.811Z,2.97
2022-11-03T18:49:25.648Z,3.40
2022-11-03T18:54:28.334Z,3.33
2022-11-03T18:59:37.170Z,3.20
2022-11-03T19:04:41.229Z,3.40
2022-11-03T19:09:45.828Z,3.15
2022-11-03T19:14:48.151Z,3.33
2022-11-03T19:19:49.990Z,3.00
2022-11-03T19:24:55.131Z,3.08
2022-11-03T19:30:00.063Z,3.75
2022-11-03T19:35:19.784Z,3.55
2022-11-03T19:40:25.052Z,3.67
2022-11-03T19:45:28.847Z,3.05
2022-11-03T19:50:32.391Z,4.50
2022-11-03T19:55:39.033Z,7.10
2022-11-03T20:00:40.803Z,5.45
2022-11-03T20:05:49.613Z,6.50
2022-11-03T20:10:51.731Z,4.70
2022-11-03T20:16:01.108Z,4.65
2022-11-03T20:21:07.320Z,4.95
2022-11-03T20:26:21.454Z,6.50
2022-11-03T20:31:24.079Z,7.70
2022-11-03T20:36:26.491Z,6.65
2022-11-03T20:41:29.336Z,8.38
2022-11-03T20:46:33.560Z,7.28
2022-11-03T20:51:38.485Z,6.57
2022-11-03T20:56:40.521Z,7.72
2022-11-03T21:01:42.725Z,5.95
2022-11-03T21:06:45.926Z,6.78
2022-11-03T21:11:51.047Z,5.43
2022-11-03T21:17:11.256Z,4.75
2022-11-03T21:22:38.305Z,5.57
2022-11-03T21:27:43.233Z,4.70
2022-11-03T21:32:45.103Z,4.35
2022-11-03T21:37:47.296Z,5.38
2022-11-03T21:43:07.337Z,4.97
2022-11-03T21:48:27.567Z,4.53
2022-11-03T21:53:32.090Z,4.63
2022-11-03T21:58:36.243Z,4.50
2022-11-03T22:03:45.639Z,4.10
2022-11-03T22:08:50.109Z,3.85
2022-11-03T22:13:56.556Z,4.18
2022-11-03T22:19:16.949Z,4.28
2022-11-03T22:24:39.549Z,4.25
2022-11-03T22:30:18.758Z,3.90
2022-11-03T22:35:43.174Z,4.43
2022-11-03T22:41:06.744Z,3.85
2022-11-03T22:46:09.749Z,4.43
2022-11-03T22:51:16.865Z,4.55
2022-11-03T22:56:20.618Z,4.00
2022-11-03T23:01:31.705Z,4.30
2022-11-03T23:06:38.328Z,3.92
2022-11-03T23:11:50.703Z,4.45
2022-11-03T23:16:56.686Z,4.00
2022-11-03T23:22:07.696Z,3.78
2022-11-03T23:27:18.947Z,4.18
2022-11-03T23:32:29.475Z,4.13
2022-11-03T23:37:36.367Z,4.43
2022-11-03T23:42:48.057Z,5.00
2022-11-03T23:48:14.443Z,5.22
2022-11-03T23:53:23.018Z,5.10
2022-11-03T23:58:28.410Z,5.40
